createdAt,value
2017-10-16T00:02:10.566Z,12.17
2017-10-16T00:04:37.860Z,12.57
2017-10-16T00:07:05.131Z,12.37
2017-10-16T00:09:32.423Z,12.60
2017-10-16T00:11:59.694Z,15.97
2017-10-16T00:14:26.999Z,14.60
2017-10-16T00:16:54.272Z,11.70
2017-10-16T00:19:21.540Z,13.13
2017-10-16T00:21:48.831Z,11.30
2017-10-16T00:24:16.110Z,12.30
2017-10-16T00:26:43.403Z,13.90
2017-10-16T00:29:10.679Z,13.10
2017-10-16T00:31:37.962Z,12.43
2017-10-16T00:34:05.236Z,12.20
2017-10-16T00:36:32.533Z,13.57
2017-10-16T00:38:59.807Z,12.50
2017-10-16T00:41:27.176Z,13.47
2017-10-16T00:43:54.454Z,18.33
2017-10-16T00:46:21.747Z,13.33
2017-10-16T00:48:49.150Z,16.67
2017-10-16T00:51:16.457Z,12.00
2017-10-16T00:53:43.723Z,17.90
2017-10-16T00:56:11.017Z,13.33
2017-10-16T00:58:38.286Z,20.00
2017-10-16T01:01:05.575Z,14.33
2017-10-16T01:03:32.851Z,12.57
2017-10-16T01:06:00.143Z,14.53
2017-10-16T01:08:27.419Z,13.50
2017-10-16T01:10:54.706Z,14.43
2017-10-16T01:13:21.987Z,16.13
2017-10-16T01:15:49.301Z,18.23
2017-10-16T01:18:16.568Z,18.70
2017-10-16T01:20:43.835Z,18.80
2017-10-16T01:23:11.131Z,19.50
2017-10-16T01:25:38.403Z,20.20
2017-10-16T01:28:05.707Z,21.30
2017-10-16T01:30:32.980Z,21.90
2017-10-16T01:33:00.262Z,20.10
2017-10-16T01:35:27.534Z,19.60
2017-10-16T01:37:54.834Z,19.97
2017-10-16T01:40:22.104Z,18.17
2017-10-16T01:42:49.394Z,16.40
2017-10-16T01:45:16.670Z,16.80
2017-10-16T01:47:43.960Z,16.70
2017-10-16T01:50:11.234Z,15.37
2017-10-16T01:52:38.527Z,16.70
2017-10-16T01:55:05.799Z,17.13
2017-10-16T01:57:33.123Z,16.73
2017-10-16T02:00:00.435Z,15.80
2017-10-16T02:02:27.732Z,16.70
2017-10-16T02:04:55.002Z,16.10
2017-10-16T02:07:22.301Z,18.23
2017-10-16T02:09:49.579Z,18.93
2017-10-16T02:12:16.871Z,22.07
2017-10-16T02:14:44.144Z,22.90
2017-10-16T02:17:11.795Z,21.97
2017-10-16T02:19:39.070Z,24.40
2017-10-16T02:22:06.368Z,25.77
2017-10-16T02:24:33.668Z,25.60
2017-10-16T02:27:00.935Z,23.43
2017-10-16T02:29:28.225Z,25.30
2017-10-16T02:31:55.503Z,24.97
2017-10-16T02:34:22.789Z,24.33
2017-10-16T02:36:50.063Z,22.77
2017-10-16T02:39:17.347Z,21.07
2017-10-16T02:41:44.616Z,23.53
2017-10-16T02:44:11.912Z,22.10
2017-10-16T02:46:39.403Z,24.47
2017-10-16T02:49:06.700Z,17.60
2017-10-16T02:51:33.963Z,19.30
2017-10-16T02:54:01.251Z,21.20
2017-10-16T02:56:28.534Z,22.90
2017-10-16T02:58:55.819Z,21.80
2017-10-16T03:01:23.092Z,17.70
2017-10-16T03:03:50.383Z,21.70
2017-10-16T03:06:17.651Z,17.40
2017-10-16T03:08:44.939Z,18.30
2017-10-16T03:11:12.212Z,23.60
2017-10-16T03:13:39.503Z,19.47
2017-10-16T03:16:06.795Z,17.93
2017-10-16T03:18:34.079Z,17.07
2017-10-16T03:21:01.362Z,19.20
2017-10-16T03:23:28.631Z,19.13
2017-10-16T03:25:55.927Z,23.00
2017-10-16T03:28:23.211Z,18.80
2017-10-16T03:30:50.495Z,18.97
2017-10-16T03:33:17.780Z,23.33
2017-10-16T03:35:45.062Z,21.77
2017-10-16T03:38:12.339Z,18.90
2017-10-16T03:40:39.636Z,21.43
2017-10-16T03:43:06.899Z,29.57
2017-10-16T03:45:34.186Z,22.07
2017-10-16T03:48:01.463Z,22.10
2017-10-16T03:50:28.751Z,23.47
2017-10-16T03:52:56.020Z,21.53
2017-10-16T03:55:23.313Z,22.27
2017-10-16T03:57:50.587Z,23.93
2017-10-16T04:00:17.875Z,19.30
2017-10-16T04:02:45.142Z,22.23
2017-10-16T04:05:12.436Z,22.03
2017-10-16T04:07:39.711Z,20.30
2017-10-16T04:10:06.993Z,20.73
2017-10-16T04:12:34.272Z,20.37
2017-10-16T04:15:01.539Z,21.07
2017-10-16T04:17:28.839Z,23.77
2017-10-16T04:19:56.103Z,20.80
2017-10-16T04:22:23.387Z,20.63
2017-10-16T04:24:50.655Z,20.17
2017-10-16T04:27:17.945Z,21.37
2017-10-16T04:29:45.219Z,20.83
2017-10-16T04:32:12.511Z,23.43
2017-10-16T04:34:39.779Z,20.07
2017-10-16T04:37:07.073Z,20.67
2017-10-16T04:39:34.343Z,21.27
2017-10-16T04:42:02.487Z,22.60
2017-10-16T04:44:29.771Z,21.20
2017-10-16T04:46:57.063Z,22.30
2017-10-16T04:49:24.330Z,21.50
2017-10-16T04:51:51.618Z,20.30
2017-10-16T04:54:18.886Z,21.40
2017-10-16T04:56:46.181Z,21.10
2017-10-16T04:59:13.459Z,20.40
2017-10-16T05:01:40.753Z,19.37
2017-10-16T05:04:08.026Z,22.73
2017-10-16T05:06:35.329Z,18.97
2017-10-16T05:09:02.595Z,19.23
2017-10-16T05:11:30.082Z,19.70
2017-10-16T05:13:57.575Z,18.87
2017-10-16T05:16:24.846Z,18.60
2017-10-16T05:18:52.115Z,19.30
2017-10-16T05:21:19.411Z,19.07
2017-10-16T05:23:46.722Z,21.30
2017-10-16T05:26:13.982Z,23.90
2017-10-16T05:28:41.250Z,19.57
2017-10-16T05:31:08.559Z,20.50
2017-10-16T05:33:35.832Z,20.87
2017-10-16T05:36:03.121Z,23.80
2017-10-16T05:38:30.422Z,23.50
2017-10-16T05:40:57.693Z,20.80
2017-10-16T05:43:24.999Z,21.60
2017-10-16T05:45:52.303Z,21.73
2017-10-16T05:48:19.602Z,23.00
2017-10-16T05:50:46.890Z,22.67
2017-10-16T05:53:14.232Z,21.03
2017-10-16T05:55:41.521Z,22.80
2017-10-16T05:58:08.838Z,24.00
2017-10-16T06:00:36.108Z,24.00
2017-10-16T06:03:03.372Z,22.30
2017-10-16T06:05:30.656Z,21.47
2017-10-16T06:07:57.928Z,24.00
2017-10-16T06:10:25.235Z,21.73
2017-10-16T06:12:56.516Z,22.83
2017-10-16T06:15:23.808Z,23.60
2017-10-16T06:17:51.096Z,22.17
2017-10-16T06:20:18.370Z,23.17
2017-10-16T06:22:45.674Z,20.97
2017-10-16T06:25:12.949Z,24.10
2017-10-16T06:27:40.214Z,22.63
2017-10-16T06:30:07.544Z,20.63
2017-10-16T06:32:34.812Z,21.43
2017-10-16T06:35:02.082Z,22.50
2017-10-16T06:37:29.387Z,22.43
2017-10-16T06:39:56.658Z,23.20
2017-10-16T06:42:23.960Z,22.07
2017-10-16T06:44:51.245Z,21.63
2017-10-16T06:47:18.532Z,21.23
2017-10-16T06:49:45.822Z,21.27
2017-10-16T06:52:13.100Z,20.93
2017-10-16T06:54:40.398Z,21.43
2017-10-16T06:57:07.670Z,21.97
2017-10-16T06:59:34.947Z,21.90
2017-10-16T07:02:02.246Z,19.97
2017-10-16T07:04:29.522Z,22.70
2017-10-16T07:06:56.798Z,23.93
2017-10-16T07:09:24.106Z,21.87
2017-10-16T07:14:24.959Z,21.80
2017-10-16T07:16:52.233Z,22.10
2017-10-16T07:19:19.523Z,20.10
2017-10-16T07:21:46.826Z,19.17
2017-10-16T07:24:14.094Z,18.50
2017-10-16T07:26:41.404Z,19.23
2017-10-16T07:29:08.676Z,18.80
2017-10-16T07:31:35.943Z,17.37
2017-10-16T07:34:03.242Z,18.60
2017-10-16T07:36:30.535Z,18.00
2017-10-16T07:38:57.807Z,16.47
2017-10-16T07:41:25.108Z,17.93
2017-10-16T07:43:52.388Z,17.53
2017-10-16T07:46:19.691Z,17.83
2017-10-16T07:48:46.979Z,17.53
2017-10-16T07:51:14.283Z,16.60
2017-10-16T07:53:41.550Z,16.50
2017-10-16T07:56:08.828Z,17.40
2017-10-16T07:58:36.127Z,18.00
2017-10-16T08:01:03.399Z,17.43
2017-10-16T08:03:30.703Z,16.80
2017-10-16T08:05:57.983Z,16.93
2017-10-16T08:08:25.279Z,16.57
2017-10-16T08:10:52.550Z,18.20
2017-10-16T08:13:19.843Z,17.70
2017-10-16T08:15:47.148Z,17.07
2017-10-16T08:18:14.414Z,15.63
2017-10-16T08:20:41.714Z,16.30
2017-10-16T08:23:08.994Z,15.40
2017-10-16T08:25:36.283Z,15.97
2017-10-16T08:28:03.583Z,15.10
2017-10-16T08:30:30.853Z,13.30
2017-10-16T08:32:58.133Z,16.90
2017-10-16T08:35:25.439Z,17.27
2017-10-16T08:37:52.711Z,15.63
2017-10-16T08:40:20.019Z,15.57
2017-10-16T08:42:47.287Z,14.80
2017-10-16T08:45:14.551Z,15.33
2017-10-16T08:47:41.850Z,13.97
2017-10-16T08:50:09.129Z,14.90
2017-10-16T08:52:36.431Z,14.33
2017-10-16T08:55:03.711Z,15.60
2017-10-16T08:57:30.986Z,14.30
2017-10-16T08:59:58.274Z,13.40
2017-10-16T09:02:25.596Z,14.90
2017-10-16T09:04:52.865Z,12.83
2017-10-16T09:07:20.131Z,13.57
2017-10-16T09:09:47.435Z,14.00
2017-10-16T09:12:14.735Z,14.17
2017-10-16T09:14:42.034Z,13.27
2017-10-16T09:17:09.310Z,14.07
2017-10-16T09:19:36.576Z,12.73
2017-10-16T09:22:03.895Z,13.40
2017-10-16T09:24:31.168Z,13.50
2017-10-16T09:26:58.442Z,12.93
2017-10-16T09:29:25.730Z,13.03
2017-10-16T09:31:53.051Z,12.77
2017-10-16T09:34:20.314Z,12.97
2017-10-16T09:36:47.592Z,13.23
2017-10-16T09:39:14.911Z,13.83
2017-10-16T09:41:42.190Z,13.53
2017-10-16T09:44:09.455Z,12.60
2017-10-16T09:46:36.755Z,12.83
2017-10-16T09:49:04.027Z,12.90
2017-10-16T09:51:31.337Z,12.30
2017-10-16T09:53:58.608Z,12.53
2017-10-16T09:56:25.906Z,13.00
2017-10-16T09:58:53.220Z,12.27
2017-10-16T10:01:20.495Z,10.87
2017-10-16T10:03:47.755Z,11.53
2017-10-16T10:06:15.050Z,11.40
2017-10-16T10:08:42.326Z,11.00
2017-10-16T10:11:09.616Z,10.60
2017-10-16T10:13:36.895Z,10.83
2017-10-16T10:16:04.211Z,11.17
2017-10-16T10:18:31.473Z,9.63
2017-10-16T10:20:58.734Z,9.70
2017-10-16T10:23:26.051Z,11.17
2017-10-16T10:25:53.318Z,9.67
2017-10-16T10:28:20.636Z,9.93
2017-10-16T10:30:47.903Z,10.40
2017-10-16T10:33:15.173Z,10.40
2017-10-16T10:35:42.466Z,10.30
2017-10-16T10:38:10.195Z,11.20
2017-10-16T10:40:37.467Z,10.43
2017-10-16T10:43:04.731Z,11.00
2017-10-16T10:45:32.035Z,12.53
2017-10-16T10:47:59.308Z,10.40
2017-10-16T10:50:26.612Z,10.10
2017-10-16T10:52:53.933Z,10.23
2017-10-16T10:55:21.200Z,10.50
2017-10-16T10:57:48.582Z,11.20
2017-10-16T11:00:15.901Z,10.63
2017-10-16T11:02:43.173Z,10.23
2017-10-16T11:05:10.440Z,10.97
2017-10-16T11:07:37.730Z,8.60
2017-10-16T11:10:04.999Z,9.73
2017-10-16T11:12:32.287Z,9.33
2017-10-16T11:14:59.587Z,9.70
2017-10-16T11:17:26.857Z,8.90
2017-10-16T11:19:54.145Z,10.60
2017-10-16T11:22:21.407Z,10.10
2017-10-16T11:24:48.706Z,9.63
2017-10-16T11:27:15.996Z,9.50
2017-10-16T11:29:43.284Z,9.73
2017-10-16T11:32:10.594Z,9.50
2017-10-16T11:34:37.868Z,11.07
2017-10-16T11:37:05.146Z,11.27
2017-10-16T11:39:32.435Z,9.67
2017-10-16T11:41:59.699Z,10.53
2017-10-16T11:44:26.994Z,10.33
2017-10-16T11:46:54.267Z,11.23
2017-10-16T11:49:21.570Z,10.20
2017-10-16T11:51:48.857Z,11.63
2017-10-16T11:54:16.115Z,11.77
2017-10-16T11:56:43.416Z,10.13
2017-10-16T11:59:10.683Z,10.67
2017-10-16T12:01:37.983Z,11.40
2017-10-16T12:04:05.286Z,11.50
2017-10-16T12:06:32.543Z,10.10
2017-10-16T12:08:59.845Z,10.50
2017-10-16T12:11:27.146Z,10.63
2017-10-16T12:13:54.418Z,11.20
2017-10-16T12:16:21.731Z,12.00
2017-10-16T12:18:49.007Z,10.27
2017-10-16T12:21:16.278Z,10.63
2017-10-16T12:23:43.580Z,9.93
2017-10-16T12:26:10.838Z,9.83
2017-10-16T12:28:38.132Z,10.63
2017-10-16T12:31:05.436Z,10.80
2017-10-16T12:33:32.722Z,9.67
2017-10-16T12:35:59.991Z,10.13
2017-10-16T12:38:27.289Z,10.30
2017-10-16T12:40:54.600Z,10.17
2017-10-16T12:43:21.887Z,10.43
2017-10-16T12:45:49.187Z,10.83
2017-10-16T12:48:16.483Z,10.33
2017-10-16T12:50:43.752Z,10.50
2017-10-16T12:53:11.049Z,10.93
2017-10-16T12:55:38.323Z,10.97
2017-10-16T12:58:05.626Z,11.77
2017-10-16T13:00:32.896Z,10.90
2017-10-16T13:03:00.196Z,10.23
2017-10-16T13:05:27.519Z,10.07
2017-10-16T13:07:54.786Z,11.10
2017-10-16T13:10:22.056Z,9.80
2017-10-16T13:12:49.347Z,10.00
2017-10-16T13:15:16.632Z,10.53
2017-10-16T13:17:43.926Z,10.77
2017-10-16T13:20:11.199Z,9.60
2017-10-16T13:22:38.507Z,10.07
2017-10-16T13:25:05.783Z,10.37
2017-10-16T13:27:33.043Z,9.57
2017-10-16T13:30:00.338Z,10.33
2017-10-16T13:32:27.614Z,10.13
2017-10-16T13:34:54.924Z,10.23
2017-10-16T13:37:22.207Z,10.03
2017-10-16T13:39:49.458Z,9.23
2017-10-16T13:42:16.767Z,9.70
2017-10-16T13:44:44.033Z,10.83
2017-10-16T13:47:11.299Z,9.90
2017-10-16T13:49:38.591Z,10.40
2017-10-16T13:52:05.888Z,11.37
2017-10-16T13:54:33.210Z,10.87
2017-10-16T13:57:00.485Z,11.30
2017-10-16T13:59:27.765Z,11.57
2017-10-16T14:01:55.071Z,11.33
2017-10-16T14:04:28.110Z,11.13
2017-10-16T14:06:55.415Z,13.00
2017-10-16T14:09:22.691Z,11.10
2017-10-16T14:11:50.251Z,11.70
2017-10-16T14:14:17.546Z,11.17
2017-10-16T14:16:44.819Z,11.63
2017-10-16T14:19:12.141Z,11.90
2017-10-16T14:21:39.404Z,11.50
2017-10-16T14:24:06.678Z,10.30
2017-10-16T14:26:33.995Z,12.03
2017-10-16T14:29:01.263Z,10.77
2017-10-16T14:31:28.539Z,11.00
2017-10-16T14:33:55.844Z,11.73
2017-10-16T14:36:23.112Z,11.93
2017-10-16T14:38:50.391Z,12.77
2017-10-16T14:41:17.692Z,13.17
2017-10-16T14:43:45.031Z,12.10
2017-10-16T14:46:12.323Z,12.33
2017-10-16T14:48:39.614Z,13.30
2017-10-16T14:51:06.887Z,13.20
2017-10-16T14:53:34.184Z,12.63
2017-10-16T14:56:01.495Z,13.40
2017-10-16T14:58:28.768Z,13.33
2017-10-16T15:00:56.043Z,15.80
2017-10-16T15:03:23.343Z,13.90
2017-10-16T15:05:50.611Z,14.43
2017-10-16T15:08:17.914Z,13.87
2017-10-16T15:10:45.186Z,15.10
2017-10-16T15:13:12.455Z,13.07
2017-10-16T15:15:39.759Z,13.00
2017-10-16T15:18:07.050Z,13.90
2017-10-16T15:20:34.312Z,15.67
2017-10-16T15:23:01.606Z,15.40
2017-10-16T15:25:28.904Z,14.73
2017-10-16T15:27:56.172Z,13.87
2017-10-16T15:30:23.459Z,14.30
2017-10-16T15:32:50.764Z,14.60
2017-10-16T15:35:18.068Z,16.63
2017-10-16T15:37:45.337Z,15.77
2017-10-16T15:40:12.639Z,14.13
2017-10-16T15:42:39.914Z,13.07
2017-10-16T15:45:07.195Z,14.50
2017-10-16T15:47:34.488Z,15.00
2017-10-16T15:50:01.755Z,14.83
2017-10-16T15:52:29.063Z,15.90
2017-10-16T15:54:56.341Z,16.50
2017-10-16T15:57:23.665Z,17.43
2017-10-16T15:59:50.960Z,16.03
2017-10-16T16:02:18.235Z,18.30
2017-10-16T16:04:45.531Z,17.83
2017-10-16T16:07:12.830Z,18.40
2017-10-16T16:09:40.102Z,19.57
2017-10-16T16:12:07.397Z,19.87
2017-10-16T16:14:34.707Z,19.60
2017-10-16T16:17:01.978Z,17.93
2017-10-16T16:19:29.253Z,18.57
2017-10-16T16:21:56.559Z,18.80
2017-10-16T16:24:23.831Z,19.37
2017-10-16T16:26:51.102Z,17.33
2017-10-16T16:29:18.416Z,18.43
2017-10-16T16:31:45.684Z,18.23
2017-10-16T16:34:12.952Z,17.30
2017-10-16T16:36:40.250Z,17.50
2017-10-16T16:39:07.523Z,17.33
2017-10-16T16:41:34.834Z,15.17
2017-10-16T16:44:02.111Z,15.27
2017-10-16T16:46:29.378Z,16.73
2017-10-16T16:48:56.678Z,15.20
2017-10-16T16:51:23.984Z,14.77
2017-10-16T16:53:51.255Z,14.43
2017-10-16T16:56:18.530Z,13.27
2017-10-16T16:58:45.831Z,14.03
2017-10-16T17:01:13.104Z,15.30
2017-10-16T17:03:40.411Z,13.00
2017-10-16T17:06:07.711Z,12.70
2017-10-16T17:08:34.985Z,12.30
2017-10-16T17:11:02.261Z,12.63
2017-10-16T17:13:29.572Z,12.13
2017-10-16T17:15:56.866Z,12.63
2017-10-16T17:18:24.141Z,12.50
2017-10-16T17:20:51.435Z,11.50
2017-10-16T17:23:18.752Z,11.90
2017-10-16T17:25:46.072Z,12.10
2017-10-16T17:28:13.352Z,10.67
2017-10-16T17:30:40.987Z,12.00
2017-10-16T17:33:08.263Z,12.20
2017-10-16T17:35:35.563Z,12.43
2017-10-16T17:38:02.835Z,14.53
2017-10-16T17:40:30.113Z,13.73
2017-10-16T17:42:57.411Z,13.90
2017-10-16T17:45:24.675Z,12.83
2017-10-16T17:47:52.084Z,12.10
2017-10-16T17:50:19.358Z,12.30
2017-10-16T17:52:46.623Z,12.20
2017-10-16T17:55:13.948Z,12.57
2017-10-16T17:57:41.221Z,13.13
2017-10-16T18:00:08.504Z,12.47
2017-10-16T18:02:35.807Z,12.30
2017-10-16T18:05:03.109Z,12.20
2017-10-16T18:07:30.384Z,12.00
2017-10-16T18:09:57.687Z,12.10
2017-10-16T18:12:25.019Z,11.07
2017-10-16T18:14:52.299Z,10.50
2017-10-16T18:17:19.598Z,10.63
2017-10-16T18:19:46.900Z,11.13
2017-10-16T18:22:14.170Z,11.00
2017-10-16T18:24:41.475Z,10.50
2017-10-16T18:27:08.746Z,10.13
2017-10-16T18:29:36.046Z,10.37
2017-10-16T18:32:03.320Z,10.47
2017-10-16T18:34:30.624Z,11.17
2017-10-16T18:36:57.896Z,10.10
2017-10-16T18:39:25.188Z,10.80
2017-10-16T18:41:52.495Z,11.73
2017-10-16T18:44:19.803Z,12.43
2017-10-16T18:46:47.075Z,10.37
2017-10-16T18:49:14.375Z,10.67
2017-10-16T18:51:41.646Z,10.90
2017-10-16T18:54:08.948Z,10.23
2017-10-16T18:56:36.219Z,11.70
2017-10-16T18:59:03.531Z,12.27
2017-10-16T19:01:30.789Z,12.20
2017-10-16T19:03:58.103Z,12.33
2017-10-16T19:06:25.380Z,12.50
2017-10-16T19:08:52.648Z,11.43
2017-10-16T19:11:20.186Z,12.30
2017-10-16T19:13:47.466Z,12.93
2017-10-16T19:16:14.759Z,13.03
2017-10-16T19:18:42.031Z,12.10
2017-10-16T19:21:09.351Z,13.10
2017-10-16T19:23:36.640Z,11.07
2017-10-16T19:26:03.908Z,10.90
2017-10-16T19:28:31.212Z,13.20
2017-10-16T19:30:58.515Z,11.27
2017-10-16T19:33:25.787Z,12.50
2017-10-16T19:35:53.061Z,11.97
2017-10-16T19:38:20.366Z,11.57
2017-10-16T19:40:47.701Z,11.60
2017-10-16T19:43:15.037Z,12.10
2017-10-16T19:45:42.318Z,11.30
2017-10-16T19:48:09.606Z,11.80
2017-10-16T19:50:36.937Z,10.73
2017-10-16T19:53:04.243Z,10.70
2017-10-16T19:55:31.513Z,11.57
2017-10-16T19:57:58.831Z,11.20
2017-10-16T20:00:26.103Z,11.90
2017-10-16T20:02:53.378Z,10.87
2017-10-16T20:05:20.779Z,10.53
2017-10-16T20:07:48.232Z,10.57
2017-10-16T20:10:15.539Z,10.37
2017-10-16T20:12:42.803Z,10.70
2017-10-16T20:15:10.116Z,11.30
2017-10-16T20:17:37.419Z,10.40
2017-10-16T20:20:04.734Z,10.93
2017-10-16T20:22:32.005Z,11.47
2017-10-16T20:24:59.315Z,8.67
2017-10-16T20:27:26.584Z,10.60
2017-10-16T20:29:53.856Z,9.40
2017-10-16T20:32:21.151Z,9.00
2017-10-16T20:34:48.458Z,10.30
2017-10-16T20:37:15.723Z,10.57
2017-10-16T20:39:43.190Z,10.83
2017-10-16T20:42:10.459Z,10.13
2017-10-16T20:44:37.758Z,11.10
2017-10-16T20:47:05.036Z,10.47
2017-10-16T20:49:32.335Z,10.07
2017-10-16T20:51:59.826Z,11.43
2017-10-16T20:54:27.100Z,10.43
2017-10-16T20:56:54.435Z,9.93
2017-10-16T20:59:21.695Z,11.00
2017-10-16T21:01:48.983Z,10.20
2017-10-16T21:04:16.291Z,11.50
2017-10-16T21:06:43.556Z,9.93
2017-10-16T21:09:10.821Z,10.30
2017-10-16T21:11:38.130Z,10.37
2017-10-16T21:14:05.422Z,10.40
2017-10-16T21:16:32.723Z,11.20
2017-10-16T21:18:59.994Z,12.03
2017-10-16T21:21:27.303Z,12.37
2017-10-16T21:23:54.572Z,12.20
2017-10-16T21:26:21.847Z,11.63
2017-10-16T21:28:49.263Z,12.17
2017-10-16T21:31:16.580Z,13.23
2017-10-16T21:33:43.870Z,11.23
2017-10-16T21:36:11.168Z,12.53
2017-10-16T21:38:38.442Z,11.90
2017-10-16T21:41:05.745Z,12.67
2017-10-16T21:43:33.043Z,11.50
2017-10-16T21:46:00.334Z,12.13
2017-10-16T21:48:27.653Z,13.30
2017-10-16T21:50:54.928Z,13.10
2017-10-16T21:53:22.198Z,11.27
2017-10-16T21:55:49.506Z,12.03
2017-10-16T21:58:16.775Z,11.20
2017-10-16T22:00:44.134Z,11.57
2017-10-16T22:03:11.428Z,10.67
2017-10-16T22:05:38.726Z,10.67
2017-10-16T22:08:06.027Z,12.13
2017-10-16T22:10:33.302Z,11.33
2017-10-16T22:13:00.586Z,10.87
2017-10-16T22:15:27.915Z,10.97
2017-10-16T22:17:55.189Z,11.07
2017-10-16T22:20:22.466Z,11.10
2017-10-16T22:22:49.775Z,10.87
2017-10-16T22:25:17.046Z,10.57
2017-10-16T22:27:44.318Z,10.93
2017-10-16T22:30:11.605Z,11.23
2017-10-16T22:32:38.912Z,12.47
2017-10-16T22:35:06.191Z,11.50
2017-10-16T22:37:33.493Z,12.23
2017-10-16T22:40:00.771Z,10.87
2017-10-16T22:42:28.066Z,12.53
2017-10-16T22:44:55.347Z,12.07
2017-10-16T22:47:28.628Z,12.37
2017-10-16T22:49:55.695Z,11.90
2017-10-16T22:52:22.974Z,12.23
2017-10-16T22:54:50.269Z,12.47
2017-10-16T22:57:17.577Z,12.07
2017-10-16T22:59:44.848Z,13.27
2017-10-16T23:02:12.119Z,12.43
2017-10-16T23:04:39.431Z,12.77
2017-10-16T23:07:06.702Z,12.40
2017-10-16T23:09:33.973Z,12.60
2017-10-16T23:12:01.278Z,13.07
2017-10-16T23:14:28.551Z,13.27
2017-10-16T23:16:55.823Z,12.03
2017-10-16T23:19:23.131Z,12.93
2017-10-16T23:21:50.402Z,12.93
2017-10-16T23:24:17.739Z,13.13
2017-10-16T23:26:45.035Z,14.00
2017-10-16T23:29:12.336Z,12.00
2017-10-16T23:31:39.640Z,12.07
2017-10-16T23:34:06.937Z,12.83
2017-10-16T23:36:34.239Z,11.63
2017-10-16T23:39:01.514Z,11.50
2017-10-16T23:41:28.783Z,12.03
2017-10-16T23:43:56.078Z,11.13
2017-10-16T23:46:23.386Z,13.13
2017-10-16T23:48:50.668Z,10.80
2017-10-16T23:51:17.935Z,12.30
2017-10-16T23:53:45.242Z,12.90
2017-10-16T23:56:12.579Z,12.43
2017-10-16T23:58:39.877Z,11.57
